DAL2127 KDCA-KATL
Flight info
| Callsign | DAL2127 |
|---|---|
| Flight time | N/A |
| Altitude | 36000 |
| Route | CLTCH3 FLASK OZZZI2 |
| Aircraft | A320/M-SDE3FGHIRWY/LB1 |
Departure
| Time | 2026-05-07 10:07 |
|---|---|
| Airport | Ronald Reagan Washington National Airport (KDCA) |
Arrival
| Time | N/A |
|---|---|
| Airport | Hartsfield Jackson Atlanta International Airport (KATL) |
| Time | Latitude | Longitude | Altitude | Speed | Heading |
|---|---|---|---|---|---|
| 2026-05-07 09:55 | 38.85170 | -77.04054 | 23 ft | 0 kts | 317° |
| 2026-05-07 09:59 | 38.85163 | -77.04045 | 23 ft | 2 kts | 317° |
| 2026-05-07 10:00 | 38.85152 | -77.04033 | 23 ft | 2 kts | 317° |
| 2026-05-07 10:00 | 38.85143 | -77.04022 | 23 ft | 1 kts | 317° |
| 2026-05-07 10:00 | 38.85134 | -77.04010 | 23 ft | 2 kts | 302° |
| 2026-05-07 10:00 | 38.85129 | -77.03998 | 23 ft | 1 kts | 291° |
| 2026-05-07 10:01 | 38.85129 | -77.03982 | 23 ft | 1 kts | 235° |
| 2026-05-07 10:01 | 38.85139 | -77.03974 | 23 ft | 0 kts | 182° |
| 2026-05-07 10:01 | 38.85146 | -77.03975 | 23 ft | 1 kts | 174° |
| 2026-05-07 10:01 | 38.85148 | -77.03975 | 23 ft | 0 kts | 175° |
| 2026-05-07 10:03 | 38.85147 | -77.03975 | 23 ft | 1 kts | 175° |
| 2026-05-07 10:03 | 38.85122 | -77.03973 | 23 ft | 5 kts | 175° |
| 2026-05-07 10:03 | 38.85058 | -77.03966 | 23 ft | 14 kts | 175° |
| 2026-05-07 10:04 | 38.84955 | -77.03956 | 23 ft | 15 kts | 175° |
| 2026-05-07 10:04 | 38.84845 | -77.03945 | 23 ft | 16 kts | 175° |
| 2026-05-07 10:04 | 38.84761 | -77.03934 | 23 ft | 7 kts | 164° |
| 2026-05-07 10:04 | 38.84718 | -77.03883 | 23 ft | 10 kts | 144° |
| 2026-05-07 10:05 | 38.84629 | -77.03862 | 23 ft | 15 kts | 174° |
| 2026-05-07 10:05 | 38.84510 | -77.03851 | 23 ft | 18 kts | 175° |
| 2026-05-07 10:05 | 38.84381 | -77.03838 | 23 ft | 18 kts | 176° |
| 2026-05-07 10:05 | 38.84254 | -77.03822 | 23 ft | 15 kts | 162° |
| 2026-05-07 10:06 | 38.84193 | -77.03725 | 23 ft | 13 kts | 105° |
| 2026-05-07 10:06 | 38.84215 | -77.03681 | 23 ft | 7 kts | 355° |
| 2026-05-07 10:06 | 38.84358 | -77.03696 | 23 ft | 51 kts | 356° |
| 2026-05-07 10:06 | 38.84951 | -77.03755 | 23 ft | 117 kts | 355° |
| 2026-05-07 10:07 | 38.85945 | -77.03859 | 140 ft | 159 kts | 356° |
| 2026-05-07 10:07 | 38.87027 | -77.04004 | 762 ft | 160 kts | 347° |
| 2026-05-07 10:07 | 38.87968 | -77.04711 | 1555 ft | 159 kts | 325° |
| 2026-05-07 10:07 | 38.88761 | -77.05608 | 2224 ft | 156 kts | 323° |
| 2026-05-07 10:08 | 38.89611 | -77.06590 | 2588 ft | 172 kts | 318° |
| 2026-05-07 10:08 | 38.90385 | -77.07881 | 2949 ft | 192 kts | 306° |
| 2026-05-07 10:08 | 38.91077 | -77.09451 | 3231 ft | 216 kts | 304° |
| 2026-05-07 10:08 | 38.92066 | -77.10984 | 3663 ft | 231 kts | 321° |
| 2026-05-07 10:09 | 38.93422 | -77.12161 | 4170 ft | 245 kts | 328° |
| 2026-05-07 10:09 | 38.94917 | -77.13309 | 4874 ft | 253 kts | 327° |
| 2026-05-07 10:09 | 38.96290 | -77.14695 | 5605 ft | 254 kts | 305° |
| 2026-05-07 10:09 | 38.97039 | -77.16687 | 6397 ft | 253 kts | 281° |
| 2026-05-07 10:10 | 38.97361 | -77.18874 | 7255 ft | 253 kts | 277° |
| 2026-05-07 10:10 | 38.97673 | -77.21082 | 8115 ft | 254 kts | 277° |
| 2026-05-07 10:10 | 38.97997 | -77.23312 | 8983 ft | 255 kts | 276° |
| 2026-05-07 10:10 | 38.98132 | -77.25539 | 9818 ft | 251 kts | 260° |
| 2026-05-07 10:11 | 38.97620 | -77.27631 | 10615 ft | 252 kts | 243° |
| 2026-05-07 10:11 | 38.96497 | -77.29463 | 11032 ft | 274 kts | 225° |
| 2026-05-07 10:11 | 38.94910 | -77.30954 | 11368 ft | 293 kts | 220° |
| 2026-05-07 10:11 | 38.93195 | -77.32533 | 11792 ft | 306 kts | 220° |
| 2026-05-07 10:12 | 38.91473 | -77.34106 | 12473 ft | 310 kts | 221° |
| 2026-05-07 10:12 | 38.89698 | -77.35719 | 13177 ft | 312 kts | 221° |
| 2026-05-07 10:12 | 38.87934 | -77.37324 | 13865 ft | 314 kts | 221° |
| 2026-05-07 10:12 | 38.86146 | -77.38945 | 14566 ft | 315 kts | 221° |
| 2026-05-07 10:13 | 38.84350 | -77.40572 | 15253 ft | 316 kts | 222° |
| 2026-05-07 10:13 | 38.82576 | -77.42178 | 15898 ft | 317 kts | 223° |
| 2026-05-07 10:13 | 38.80774 | -77.43809 | 16562 ft | 316 kts | 221° |
| 2026-05-07 10:13 | 38.78980 | -77.45437 | 17184 ft | 317 kts | 223° |
| 2026-05-07 10:14 | 38.77202 | -77.47040 | 17796 ft | 317 kts | 223° |
| 2026-05-07 10:14 | 38.75412 | -77.48683 | 18371 ft | 316 kts | 224° |
| 2026-05-07 10:14 | 38.73705 | -77.50465 | 18969 ft | 314 kts | 228° |
| 2026-05-07 10:14 | 38.72111 | -77.52367 | 19532 ft | 312 kts | 231° |
| 2026-05-07 10:15 | 38.70627 | -77.54372 | 19987 ft | 313 kts | 234° |
| 2026-05-07 10:15 | 38.69161 | -77.56421 | 20440 ft | 316 kts | 233° |
| 2026-05-07 10:15 | 38.67675 | -77.58490 | 20925 ft | 317 kts | 233° |